Time;durP1;ratioP1;P1;durP2;ratioP2;P2;SDS_P1;SDS_P2;PMS_P1;PMS_P2;Temp;Humidity;BMP_temperature;BMP_pressure;BME280_temperature;BME280_humidity;BME280_pressure;Samples;Min_cycle;Max_cycle;Signal;HPM_P1;HPM_P2
2021/03/03 00:01:14;;;;;;;33.42;21.50;;;7.60;97.70;;;;;;5013982;28;20022;-73
2021/03/03 00:03:40;;;;;;;26.20;17.23;;;7.70;97.60;;;;;;5013993;28;20060;-73
2021/03/03 00:06:06;;;;;;;27.13;13.75;;;7.70;97.80;;;;;;5014036;28;20065;-73
2021/03/03 00:08:31;;;;;;;23.98;15.60;;;7.50;98.30;;;;;;5013742;28;20092;-73
2021/03/03 00:10:57;;;;;;;22.83;13.63;;;7.20;99.30;;;;;;5029073;28;20025;-73
2021/03/03 00:13:23;;;;;;;25.23;12.57;;;7.10;99.70;;;;;;5013148;28;20478;-73
2021/03/03 00:15:49;;;;;;;21.38;14.93;;;7.10;99.90;;;;;;5013628;28;20029;-73
2021/03/03 00:18:14;;;;;;;16.63;11.70;;;7.20;99.50;;;;;;5013850;28;20037;-73
2021/03/03 00:20:40;;;;;;;16.27;11.30;;;7.20;98.30;;;;;;5014277;28;20017;-73
2021/03/03 00:23:06;;;;;;;20.63;12.68;;;7.20;98.50;;;;;;5013281;28;20026;-73
2021/03/03 00:25:31;;;;;;;28.13;15.15;;;7.20;97.50;;;;;;5013763;28;20021;-73
2021/03/03 00:27:57;;;;;;;23.48;12.70;;;7.20;98.20;;;;;;5013409;28;20065;-73
2021/03/03 00:30:23;;;;;;;24.58;13.98;;;7.30;98.60;;;;;;5013891;28;20025;-73
2021/03/03 00:32:49;;;;;;;24.48;14.45;;;7.30;98.90;;;;;;5013597;28;20029;-73
2021/03/03 00:35:15;;;;;;;26.80;13.40;;;7.40;99.00;;;;;;5013381;28;20034;-73
2021/03/03 00:37:41;;;;;;;20.10;11.95;;;7.50;98.70;;;;;;5012918;28;20468;-73
2021/03/03 00:40:08;;;;;;;19.25;12.07;;;7.50;97.90;;;;;;5013281;28;20026;-73
2021/03/03 00:42:34;;;;;;;26.40;13.20;;;7.50;97.90;;;;;;5012148;28;20026;-73
2021/03/03 00:45:00;;;;;;;22.80;12.80;;;7.50;98.40;;;;;;5011858;28;20566;-73
2021/03/03 00:47:26;;;;;;;20.30;12.52;;;7.50;97.80;;;;;;5013409;28;20026;-73
2021/03/03 00:49:52;;;;;;;25.13;12.73;;;7.40;97.70;;;;;;5028342;28;20457;-73
2021/03/03 00:52:18;;;;;;;25.73;12.77;;;7.30;97.90;;;;;;5012862;28;20054;-73
2021/03/03 00:54:44;;;;;;;19.35;12.48;;;7.20;98.30;;;;;;5013172;28;20096;-73
2021/03/03 00:57:10;;;;;;;20.38;12.82;;;7.20;98.40;;;;;;5013081;28;20073;-73
2021/03/03 00:59:35;;;;;;;19.60;12.73;;;7.10;98.30;;;;;;5013117;28;20018;-73
2021/03/03 01:02:01;;;;;;;20.23;13.43;;;7.00;98.50;;;;;;5012699;28;20551;-73
2021/03/03 01:04:27;;;;;;;24.35;13.38;;;7.10;98.70;;;;;;5012916;28;20075;-73
2021/03/03 01:06:53;;;;;;;37.53;19.80;;;7.10;99.20;;;;;;5027917;28;20034;-73
2021/03/03 01:09:18;;;;;;;28.45;16.90;;;7.20;99.10;;;;;;5012901;28;20025;-73
2021/03/03 01:11:44;;;;;;;23.23;14.48;;;7.30;98.70;;;;;;5012841;28;20026;-73
2021/03/03 01:14:10;;;;;;;20.23;12.85;;;7.30;98.40;;;;;;5012672;28;20160;-73
2021/03/03 01:16:36;;;;;;;22.33;11.82;;;7.40;98.00;;;;;;5011197;28;20121;-73
2021/03/03 01:19:02;;;;;;;21.65;13.05;;;7.30;97.40;;;;;;5012550;28;20030;-73
2021/03/03 01:21:27;;;;;;;20.67;11.98;;;7.30;98.10;;;;;;5012504;28;20034;-73
2021/03/03 01:23:53;;;;;;;16.98;11.73;;;7.20;98.30;;;;;;5012543;28;20455;-73
2021/03/03 01:26:19;;;;;;;19.70;11.98;;;7.20;98.70;;;;;;5012575;28;20494;-73
2021/03/03 01:28:44;;;;;;;17.90;10.40;;;7.20;98.90;;;;;;5012484;28;20022;-73
2021/03/03 01:31:10;;;;;;;20.65;10.43;;;7.30;98.80;;;;;;5012337;28;20037;-73
2021/03/03 01:33:36;;;;;;;14.18;9.77;;;7.30;98.40;;;;;;5012444;28;20017;-73
2021/03/03 01:36:02;;;;;;;21.10;11.35;;;7.20;98.50;;;;;;5011972;28;20084;-73
2021/03/03 01:38:28;;;;;;;20.02;9.77;;;7.20;98.70;;;;;;5012266;28;20042;-73
2021/03/03 01:40:54;;;;;;;16.75;9.43;;;7.20;98.20;;;;;;5012276;28;20548;-73
2021/03/03 01:43:20;;;;;;;19.50;10.77;;;7.20;98.10;;;;;;5012157;28;20014;-73
2021/03/03 01:45:48;;;;;;;37.45;18.88;;;7.20;98.70;;;;;;5012313;28;20103;-73
2021/03/03 01:48:14;;;;;;;28.20;13.73;;;7.20;98.30;;;;;;5012129;28;20490;-73
2021/03/03 01:50:41;;;;;;;28.35;13.82;;;7.00;98.10;;;;;;5011925;28;20053;-73
2021/03/03 01:53:08;;;;;;;29.10;14.75;;;6.90;98.50;;;;;;5011944;28;20022;-73
2021/03/03 01:55:34;;;;;;;25.88;13.32;;;6.90;98.90;;;;;;5012209;28;20037;-73
2021/03/03 01:58:01;;;;;;;21.60;13.20;;;7.00;98.80;;;;;;5012046;28;20025;-73
2021/03/03 02:00:27;;;;;;;24.45;12.55;;;7.00;99.00;;;;;;5010842;28;20037;-73
2021/03/03 02:02:52;;;;;;;17.35;10.50;;;7.10;98.90;;;;;;5012134;28;20030;-73
2021/03/03 02:05:18;;;;;;;18.95;11.27;;;7.00;98.40;;;;;;5011501;28;20045;-73
2021/03/03 02:08:03;;;;;;;24.48;11.00;;;6.80;98.80;;;;;;5011958;28;20026;-73
2021/03/03 02:10:50;;;;;;;18.10;10.80;;;6.80;98.70;;;;;;5012072;28;20113;-73
2021/03/03 02:13:40;;;;;;;15.18;10.05;;;6.80;99.50;;;;;;5011974;28;20022;-73
2021/03/03 02:16:07;;;;;;;;;;;6.80;99.50;;;;;;5012202;28;20022;-73
2021/03/03 02:18:35;;;;;;;16.20;9.18;;;6.80;99.80;;;;;;5011656;28;19909;-73
2021/03/03 02:21:13;;;;;;;16.33;9.75;;;6.80;99.40;;;;;;5011852;28;20018;-73
2021/03/03 02:24:14;;;;;;;16.10;11.30;;;6.80;99.90;;;;;;5012003;28;20022;-73
2021/03/03 02:26:42;;;;;;;21.35;12.32;;;6.80;99.90;;;;;;5011235;28;20030;-73
2021/03/03 02:29:13;;;;;;;17.20;9.68;;;6.90;99.70;;;;;;5011616;28;20121;-73
2021/03/03 02:31:43;;;;;;;15.20;9.00;;;6.90;99.20;;;;;;5011918;28;20045;-73
2021/03/03 02:34:12;;;;;;;12.95;8.98;;;6.90;99.50;;;;;;5011841;28;20045;-73
2021/03/03 02:36:38;;;;;;;17.75;9.13;;;6.80;99.60;;;;;;5014291;28;20033;-73
2021/03/03 02:39:05;;;;;;;15.25;9.75;;;6.70;99.90;;;;;;5015504;28;20026;-73
2021/03/03 02:41:33;;;;;;;16.75;10.25;;;6.70;99.90;;;;;;5015755;28;20553;-73
2021/03/03 02:44:00;;;;;;;15.75;9.75;;;6.80;99.90;;;;;;5015611;28;20053;-73
2021/03/03 02:46:26;;;;;;;18.48;8.65;;;6.80;99.90;;;;;;5015414;28;20482;-73
2021/03/03 02:48:53;;;;;;;16.52;10.18;;;6.70;98.90;;;;;;5015095;28;20406;-73
2021/03/03 02:51:19;;;;;;;15.68;9.27;;;6.60;98.90;;;;;;5014129;28;20030;-73
2021/03/03 02:53:44;;;;;;;20.65;10.13;;;6.60;98.60;;;;;;5015368;28;20045;-73
2021/03/03 02:56:10;;;;;;;20.80;10.45;;;6.70;99.10;;;;;;5015189;28;20030;-73
2021/03/03 02:58:36;;;;;;;17.27;10.20;;;6.70;99.90;;;;;;5015197;28;20018;-73
2021/03/03 03:01:06;;;;;;;16.20;9.63;;;6.80;99.90;;;;;;5013808;28;20033;-73
2021/03/03 03:03:34;;;;;;;14.50;9.77;;;6.80;99.80;;;;;;5015196;28;20108;-73
2021/03/03 03:06:32;;;;;;;16.55;9.88;;;6.80;99.40;;;;;;5015235;28;20449;-73
2021/03/03 03:09:03;;;;;;;14.63;9.98;;;6.80;99.50;;;;;;5015117;28;20032;-73
2021/03/03 03:11:31;;;;;;;15.80;10.27;;;6.60;99.10;;;;;;5030285;28;20037;-73
2021/03/03 03:14:08;;;;;;;19.20;10.52;;;6.50;99.50;;;;;;5015097;28;20026;-73
2021/03/03 03:16:35;;;;;;;28.17;15.43;;;6.50;99.00;;;;;;5014471;28;20398;-73
2021/03/03 03:19:03;;;;;;;21.45;12.38;;;6.50;99.90;;;;;;5013631;28;20490;-73
2021/03/03 03:21:30;;;;;;;23.20;12.52;;;6.60;99.80;;;;;;5014736;28;20116;-73
2021/03/03 03:23:59;;;;;;;23.65;12.13;;;6.60;99.90;;;;;;5015038;28;20030;-73
2021/03/03 03:26:27;;;;;;;29.88;12.77;;;6.70;99.90;;;;;;5014593;28;20080;-73
2021/03/03 03:28:54;;;;;;;19.08;10.07;;;6.70;99.90;;;;;;5014809;28;20029;-73
2021/03/03 03:31:21;;;;;;;15.70;8.60;;;6.60;99.50;;;;;;5014312;28;20033;-73
2021/03/03 03:33:49;;;;;;;16.15;10.55;;;6.40;99.40;;;;;;5014643;28;20026;-73
2021/03/03 03:36:15;;;;;;;15.13;8.63;;;6.30;99.90;;;;;;5014441;28;20046;-73
2021/03/03 03:38:41;;;;;;;21.55;10.27;;;6.40;99.90;;;;;;5014514;28;20518;-73
2021/03/03 03:41:08;;;;;;;16.40;10.27;;;6.40;99.90;;;;;;5014533;28;20037;-73
2021/03/03 03:43:36;;;;;;;20.48;9.07;;;6.50;99.90;;;;;;5014537;28;20022;-73
2021/03/03 03:46:02;;;;;;;12.52;8.98;;;6.50;99.30;;;;;;5014061;28;20037;-73
2021/03/03 03:48:29;;;;;;;13.88;8.65;;;6.50;99.00;;;;;;5013134;28;20036;-73
2021/03/03 03:50:55;;;;;;;18.52;10.40;;;6.50;99.20;;;;;;5014487;28;20034;-73
2021/03/03 03:53:24;;;;;;;15.95;9.10;;;6.50;99.30;;;;;;5012868;28;20033;-73
2021/03/03 03:55:49;;;;;;;18.67;9.77;;;6.50;99.10;;;;;;5014306;28;20033;-73
2021/03/03 03:58:15;;;;;;;16.58;10.23;;;6.40;99.40;;;;;;5014094;28;20018;-73
2021/03/03 04:00:41;;;;;;;16.70;10.93;;;6.50;99.50;;;;;;5013839;28;20156;-73
2021/03/03 04:03:07;;;;;;;15.48;10.35;;;6.60;99.90;;;;;;5014092;28;20022;-73
2021/03/03 04:05:32;;;;;;;16.65;10.43;;;6.60;99.90;;;;;;5013887;28;20512;-73
2021/03/03 04:07:58;;;;;;;16.17;9.43;;;6.60;99.90;;;;;;5014105;28;20037;-73
2021/03/03 04:10:29;;;;;;;12.50;8.65;;;6.60;99.50;;;;;;5013743;28;20049;-73
2021/03/03 04:12:55;;;;;;;15.43;9.90;;;6.50;99.40;;;;;;5013953;28;20105;-73
2021/03/03 04:15:21;;;;;;;20.90;9.63;;;6.60;99.10;;;;;;5013446;28;20040;-73
2021/03/03 04:17:47;;;;;;;16.10;9.52;;;6.60;99.80;;;;;;5013817;28;20026;-73
2021/03/03 04:20:14;;;;;;;20.45;8.98;;;6.60;99.60;;;;;;5013818;28;20069;-73
2021/03/03 04:22:40;;;;;;;18.10;10.98;;;6.70;99.70;;;;;;5012530;28;20375;-73
2021/03/03 04:25:09;;;;;;;19.77;10.93;;;6.60;99.40;;;;;;5013745;28;20548;-73
2021/03/03 04:27:35;;;;;;;19.30;10.25;;;6.70;99.50;;;;;;5013344;28;20490;-73
2021/03/03 04:30:03;;;;;;;17.00;10.00;;;6.80;99.50;;;;;;5013336;28;20018;-73
2021/03/03 04:32:29;;;;;;;20.25;11.18;;;6.90;99.50;;;;;;5013390;28;20105;-73
2021/03/03 04:34:54;;;;;;;18.55;10.15;;;6.80;99.60;;;;;;5013514;28;20122;-73
2021/03/03 04:37:20;;;;;;;23.60;11.10;;;6.80;99.40;;;;;;5013213;28;20053;-73
2021/03/03 04:39:46;;;;;;;22.58;11.70;;;6.80;99.50;;;;;;5013222;28;20025;-73
2021/03/03 04:42:12;;;;;;;19.80;10.95;;;6.70;99.70;;;;;;5013523;28;20049;-73
2021/03/03 04:44:37;;;;;;;18.33;9.82;;;6.60;99.80;;;;;;5012913;28;20030;-73
2021/03/03 04:47:03;;;;;;;23.70;11.02;;;6.80;99.40;;;;;;5013378;28;20010;-73
2021/03/03 04:49:29;;;;;;;29.05;15.60;;;6.80;99.90;;;;;;5013035;28;20037;-73
2021/03/03 04:51:54;;;;;;;22.33;12.00;;;6.80;99.90;;;;;;5013238;28;20030;-73
2021/03/03 04:54:20;;;;;;;19.52;10.10;;;6.80;99.90;;;;;;5013085;28;20037;-73
2021/03/03 04:56:46;;;;;;;19.13;10.32;;;6.80;99.90;;;;;;5013074;28;20034;-73
2021/03/03 04:59:12;;;;;;;20.00;10.15;;;6.80;99.90;;;;;;5012461;28;20040;-73
2021/03/03 05:01:38;;;;;;;18.33;9.07;;;6.80;99.90;;;;;;5012981;28;20057;-73
2021/03/03 05:04:04;;;;;;;12.27;8.55;;;6.70;99.90;;;;;;5012801;28;20057;-73
2021/03/03 05:06:29;;;;;;;18.13;10.38;;;6.70;99.70;;;;;;5012647;28;20029;-73
2021/03/03 05:08:55;;;;;;;13.57;7.32;;;6.60;99.10;;;;;;5013023;28;20038;-73
2021/03/03 05:11:24;;;;;;;14.68;8.75;;;6.60;99.80;;;;;;5012756;28;20445;-73
2021/03/03 05:13:50;;;;;;;17.33;9.68;;;6.60;99.90;;;;;;5012493;28;20037;-73
2021/03/03 05:16:17;;;;;;;17.08;10.25;;;6.60;99.90;;;;;;5012712;28;20105;-73
2021/03/03 05:18:43;;;;;;;15.88;9.70;;;6.60;99.90;;;;;;5012674;28;20022;-73
2021/03/03 05:21:09;;;;;;;14.15;9.10;;;6.40;99.90;;;;;;5012656;28;20016;-73
2021/03/03 05:23:36;;;;;;;12.38;8.98;;;6.50;99.90;;;;;;5012571;28;20022;-73
2021/03/03 05:26:03;;;;;;;14.52;8.73;;;6.60;99.80;;;;;;5012597;28;20417;-73
2021/03/03 05:28:30;;;;;;;18.42;10.18;;;6.50;99.80;;;;;;5012696;28;20101;-73
2021/03/03 05:30:56;;;;;;;37.50;10.15;;;6.60;99.50;;;;;;5027732;28;20034;-73
2021/03/03 05:33:33;;;;;;;14.27;9.57;;;6.50;99.60;;;;;;5012550;28;20115;-73
2021/03/03 05:36:01;;;;;;;19.20;9.68;;;6.30;99.90;;;;;;5012404;28;20087;-73
2021/03/03 05:38:27;;;;;;;18.35;11.00;;;6.30;99.90;;;;;;5012078;28;20128;-73
2021/03/03 05:40:55;;;;;;;18.23;9.80;;;6.30;99.90;;;;;;5012035;28;20108;-73
2021/03/03 05:43:21;;;;;;;18.48;9.55;;;6.40;99.90;;;;;;5012484;28;20042;-73
2021/03/03 05:45:48;;;;;;;14.45;9.70;;;6.60;99.90;;;;;;5012254;28;20109;-73
2021/03/03 05:48:23;;;;;;;14.40;9.63;;;6.60;99.90;;;;;;5012271;28;20037;-73
2021/03/03 05:50:55;;;;;;;14.70;8.70;;;6.60;99.90;;;;;;5012377;28;20017;-73
2021/03/03 05:53:22;;;;;;;18.98;8.73;;;6.70;99.90;;;;;;5012230;28;20056;-73
2021/03/03 05:55:48;;;;;;;17.30;9.20;;;6.60;99.90;;;;;;5011686;28;20024;-73
2021/03/03 05:58:15;;;;;;;18.80;10.70;;;6.60;99.90;;;;;;5012336;28;20084;-73
2021/03/03 06:00:41;;;;;;;11.85;8.45;;;6.60;99.90;;;;;;5012024;28;20045;-73
2021/03/03 06:03:08;;;;;;;15.02;9.60;;;6.70;99.90;;;;;;5010759;28;20490;-73
2021/03/03 06:05:36;;;;;;;14.63;8.90;;;6.60;99.90;;;;;;5011940;28;20521;-73
2021/03/03 06:08:02;;;;;;;14.05;9.13;;;6.60;99.90;;;;;;5012170;28;20033;-73
2021/03/03 06:10:28;;;;;;;14.10;8.15;;;6.70;99.90;;;;;;5010911;28;20448;-73
2021/03/03 06:12:54;;;;;;;15.43;9.15;;;6.70;99.90;;;;;;5012123;28;20109;-73
2021/03/03 06:15:19;;;;;;;21.98;9.15;;;6.70;99.90;;;;;;5011287;28;20068;-73
2021/03/03 06:17:45;;;;;;;20.25;9.30;;;6.70;99.90;;;;;;5011064;28;20084;-73
2021/03/03 06:20:12;;;;;;;16.88;8.85;;;6.70;99.60;;;;;;5026913;28;20393;-73
2021/03/03 06:22:38;;;;;;;22.33;16.80;;;6.70;99.40;;;;;;5004147;28;20430;-73
2021/03/03 06:25:18;;;;;;;37.80;11.77;;;6.70;99.70;;;;;;5009794;28;20457;-73
2021/03/03 06:27:43;;;;;;;39.37;18.23;;;6.70;99.60;;;;;;5010530;28;20034;-73
2021/03/03 06:30:11;;;;;;;27.83;15.65;;;6.70;99.90;;;;;;5007714;28;20303;-73
2021/03/03 06:32:58;;;;;;;24.95;14.65;;;6.80;99.90;;;;;;5008171;28;20022;-73
2021/03/03 06:35:44;;;;;;;39.83;20.45;;;6.90;99.90;;;;;;5011590;28;20398;-72
2021/03/03 06:38:13;;;;;;;29.45;15.13;;;6.90;99.90;;;;;;5010348;28;20038;-72
2021/03/03 06:40:52;;;;;;;20.80;12.18;;;6.90;99.90;;;;;;5007166;28;20502;-72
2021/03/03 06:43:26;;;;;;;20.50;11.48;;;7.00;99.60;;;;;;5008013;28;20018;-72
2021/03/03 06:45:53;;;;;;;19.42;10.30;;;7.10;99.50;;;;;;5009768;28;20501;-72
2021/03/03 06:48:41;;;;;;;23.02;11.48;;;7.10;99.50;;;;;;5011182;28;20034;-72
2021/03/03 06:51:28;;;;;;;35.22;12.27;;;7.10;99.60;;;;;;5008279;28;20033;-73
2021/03/03 06:53:56;;;;;;;21.48;11.82;;;7.10;99.80;;;;;;5010840;28;20034;-73
2021/03/03 06:56:36;;;;;;;23.00;11.93;;;7.00;99.90;;;;;;5012604;28;20026;-73
2021/03/03 06:59:11;;;;;;;;;;;7.10;99.90;;;;;;5010066;28;20030;-73
2021/03/03 07:01:37;;;;;;;24.33;14.07;;;7.10;99.90;;;;;;5011498;28;19948;-73
2021/03/03 07:04:04;;;;;;;20.98;12.32;;;7.20;99.90;;;;;;5010898;28;20029;-73
2021/03/03 07:06:33;;;;;;;17.27;11.15;;;7.30;99.90;;;;;;5011261;28;20390;-73
2021/03/03 07:08:59;;;;;;;23.20;11.88;;;7.30;99.90;;;;;;5011490;28;20032;-73
2021/03/03 07:11:29;;;;;;;25.77;12.80;;;7.30;99.70;;;;;;5009313;28;20032;-73
2021/03/03 07:13:56;;;;;;;;;;;7.30;99.60;;;;;;5011335;28;20033;-73
2021/03/03 07:16:22;;;;;;;19.10;12.55;;;7.30;99.90;;;;;;5009951;28;19919;-74
2021/03/03 07:18:47;;;;;;;20.25;11.85;;;7.40;99.70;;;;;;5011643;28;20034;-73
2021/03/03 07:21:15;;;;;;;23.95;12.98;;;7.40;99.40;;;;;;5012819;28;20459;-73
2021/03/03 07:23:45;;;;;;;21.13;12.68;;;7.50;99.70;;;;;;5028218;28;20037;-73
2021/03/03 07:26:12;;;;;;;;;;;7.40;99.60;;;;;;5013459;28;20030;-74
2021/03/03 07:28:39;;;;;;;22.25;10.95;;;7.40;99.40;;;;;;5012914;28;19920;-70
2021/03/03 07:31:06;;;;;;;23.63;12.23;;;7.30;99.70;;;;;;5013229;28;20497;-70
2021/03/03 07:33:32;;;;;;;18.95;11.77;;;7.40;99.60;;;;;;5004646;28;20508;-72
2021/03/03 07:36:00;;;;;;;26.52;13.90;;;7.30;99.90;;;;;;5008654;28;20037;-73
2021/03/03 07:38:31;;;;;;;26.67;13.45;;;7.40;99.90;;;;;;5010069;28;20094;-73
2021/03/03 07:41:02;;;;;;;23.35;12.50;;;7.50;99.90;;;;;;5013233;28;20660;-73
2021/03/03 07:43:30;;;;;;;13.88;9.73;;;7.60;99.90;;;;;;5012605;28;20018;-73
2021/03/03 07:45:58;;;;;;;20.27;11.65;;;7.80;99.60;;;;;;5011589;28;20025;-73
2021/03/03 07:48:24;;;;;;;15.13;9.75;;;7.90;99.10;;;;;;5011620;28;20065;-73
2021/03/03 07:50:50;;;;;;;19.10;10.73;;;7.90;98.90;;;;;;5012775;28;20359;-74
2021/03/03 07:53:16;;;;;;;26.05;11.18;;;8.00;98.90;;;;;;5012324;28;20026;-74
2021/03/03 07:55:42;;;;;;;16.88;11.40;;;8.00;98.60;;;;;;5011862;28;20022;-74
2021/03/03 07:58:09;;;;;;;20.48;10.70;;;8.00;98.50;;;;;;5012240;28;20544;-73
2021/03/03 08:00:42;;;;;;;20.38;12.43;;;8.10;98.60;;;;;;5012579;28;20038;-73
2021/03/03 08:03:08;;;;;;;17.52;11.85;;;8.30;98.10;;;;;;5011759;28;20512;-74
2021/03/03 08:05:39;;;;;;;26.20;11.35;;;8.40;98.00;;;;;;5007237;28;20029;-73
2021/03/03 08:08:13;;;;;;;21.88;12.32;;;8.50;97.80;;;;;;5012142;28;20036;-73
2021/03/03 08:10:43;;;;;;;22.65;17.20;;;8.60;97.60;;;;;;5006792;28;20556;-73
2021/03/03 08:13:10;;;;;;;;;;;8.70;97.70;;;;;;5006519;28;20017;-73
2021/03/03 08:15:41;;;;;;;21.77;12.52;;;8.60;97.70;;;;;;5011954;28;19913;-73
2021/03/03 08:18:16;;;;;;;18.70;10.77;;;8.70;97.50;;;;;;5011720;28;20036;-73
2021/03/03 08:20:45;;;;;;;19.23;12.25;;;8.80;97.30;;;;;;5008030;28;20037;-73
2021/03/03 08:23:11;;;;;;;20.20;12.52;;;8.70;97.40;;;;;;5011377;28;20022;-73
2021/03/03 08:25:49;;;;;;;20.27;13.75;;;8.90;97.60;;;;;;5011755;28;20092;-73
2021/03/03 08:28:35;;;;;;;20.15;12.77;;;9.00;97.60;;;;;;5011716;28;20026;-72
2021/03/03 08:31:07;;;;;;;19.30;12.75;;;9.10;97.00;;;;;;5011842;28;20010;-73
2021/03/03 08:33:43;;;;;;;27.35;14.07;;;9.20;96.90;;;;;;5011085;28;20510;-72
2021/03/03 08:36:31;;;;;;;20.40;12.40;;;9.30;96.60;;;;;;5010664;28;20022;-73
2021/03/03 08:38:56;;;;;;;19.55;10.52;;;9.40;96.80;;;;;;5011223;28;20045;-73
2021/03/03 08:41:25;;;;;;;49.63;28.98;;;9.60;96.10;;;;;;5011018;28;20409;-72
2021/03/03 08:44:05;;;;;;;27.80;13.38;;;9.80;95.50;;;;;;5010689;28;20018;-72
2021/03/03 08:46:31;;;;;;;17.33;11.52;;;9.80;95.60;;;;;;5010962;28;20564;-73
2021/03/03 08:48:57;;;;;;;24.40;13.90;;;10.00;95.20;;;;;;5010617;28;20156;-73
2021/03/03 08:51:31;;;;;;;19.85;13.48;;;10.00;95.20;;;;;;5011018;28;20514;-73
2021/03/03 08:53:59;;;;;;;25.42;13.57;;;10.10;94.70;;;;;;5010954;28;20056;-72
2021/03/03 08:56:45;;;;;;;22.02;11.90;;;10.30;94.80;;;;;;5011005;28;20069;-72
2021/03/03 08:59:14;;;;;;;20.42;12.43;;;10.50;94.40;;;;;;5011217;28;20399;-73
2021/03/03 09:02:15;;;;;;;24.58;11.60;;;10.60;93.90;;;;;;5010631;28;20490;-73
2021/03/03 09:04:50;;;;;;;24.33;12.32;;;10.60;94.60;;;;;;5010176;28;20025;-73
2021/03/03 09:07:23;;;;;;;24.63;14.57;;;10.70;94.30;;;;;;5011130;28;20108;-73
2021/03/03 09:09:50;;;;;;;26.50;13.88;;;11.00;94.40;;;;;;5011006;28;20029;-73
2021/03/03 09:12:19;;;;;;;27.83;12.82;;;11.20;94.10;;;;;;5011190;28;20032;-72
2021/03/03 09:14:46;;;;;;;21.42;12.40;;;11.30;93.30;;;;;;5010963;28;20493;-73
2021/03/03 09:17:17;;;;;;;23.02;12.63;;;11.30;93.80;;;;;;5011152;28;20036;-73
2021/03/03 09:19:44;;;;;;;24.65;12.80;;;11.40;93.20;;;;;;5009807;28;20029;-74
2021/03/03 09:22:33;;;;;;;19.02;11.15;;;11.60;92.40;;;;;;5008246;28;20103;-73
2021/03/03 09:25:17;;;;;;;26.77;11.50;;;11.70;92.40;;;;;;5009526;28;20094;-73
2021/03/03 09:27:49;;;;;;;22.13;12.35;;;11.90;91.40;;;;;;5010895;28;20030;-73
2021/03/03 09:30:16;;;;;;;25.77;12.23;;;12.10;92.20;;;;;;5009503;28;20030;-73
2021/03/03 09:32:42;;;;;;;27.95;14.52;;;12.20;91.50;;;;;;5011103;28;20026;-73
2021/03/03 09:35:08;;;;;;;45.35;34.22;;;12.30;91.50;;;;;;5011058;28;20021;-73
2021/03/03 09:37:40;;;;;;;30.70;17.17;;;12.50;91.20;;;;;;5010768;28;20046;-73
2021/03/03 09:40:08;;;;;;;38.65;19.40;;;12.60;90.60;;;;;;5011179;28;20026;-73
2021/03/03 09:42:39;;;;;;;31.13;17.13;;;12.60;90.60;;;;;;5010633;28;20171;-73
2021/03/03 09:45:08;;;;;;;29.98;15.75;;;12.80;90.00;;;;;;5014941;28;20109;-73
2021/03/03 09:47:39;;;;;;;44.70;14.65;;;13.10;89.20;;;;;;5009874;28;20072;-73
2021/03/03 09:50:18;;;;;;;40.67;14.68;;;13.30;88.00;;;;;;5010323;28;20087;-73
2021/03/03 09:52:47;;;;;;;30.15;13.98;;;13.40;87.30;;;;;;5009427;28;20657;-71
2021/03/03 09:55:21;;;;;;;22.63;13.15;;;13.60;86.60;;;;;;5008292;28;20037;-71
2021/03/03 09:57:55;;;;;;;25.08;13.35;;;13.80;85.60;;;;;;5010486;28;20029;-71
2021/03/03 10:00:25;;;;;;;29.40;12.85;;;13.80;85.30;;;;;;5010013;28;20026;-71
2021/03/03 10:03:04;;;;;;;24.48;11.07;;;14.00;84.50;;;;;;5010777;28;20034;-71
2021/03/03 10:05:32;;;;;;;24.40;12.98;;;14.20;84.20;;;;;;5010281;28;20030;-71
2021/03/03 10:08:07;;;;;;;29.58;12.80;;;14.70;82.60;;;;;;5010039;28;20496;-71
2021/03/03 10:10:36;;;;;;;20.35;12.27;;;15.00;79.50;;;;;;5010572;28;20536;-71
2021/03/03 10:13:03;;;;;;;29.42;14.73;;;15.30;77.00;;;;;;5014986;28;20101;-71
2021/03/03 10:15:37;;;;;;;25.10;13.75;;;15.70;75.50;;;;;;5010390;28;20432;-71
2021/03/03 10:18:08;;;;;;;26.40;14.63;;;16.00;74.00;;;;;;5008662;28;20080;-71
2021/03/03 10:20:54;;;;;;;30.55;14.23;;;16.10;72.80;;;;;;5009291;28;20382;-71
2021/03/03 10:23:28;;;;;;;31.63;14.55;;;16.30;73.10;;;;;;5010161;28;20033;-71
2021/03/03 10:26:05;;;;;;;24.08;13.93;;;16.50;71.90;;;;;;5009090;28;20506;-71
2021/03/03 10:28:31;;;;;;;25.92;15.02;;;16.80;71.30;;;;;;5013082;28;20029;-71
2021/03/03 10:31:04;;;;;;;21.88;13.90;;;17.00;67.40;;;;;;5010345;28;20076;-71
2021/03/03 10:33:38;;;;;;;26.98;14.00;;;17.20;66.70;;;;;;5011227;28;20105;-71
2021/03/03 10:36:21;;;;;;;26.63;15.07;;;17.30;64.70;;;;;;5016800;28;20026;-71
2021/03/03 10:38:53;;;;;;;28.02;14.80;;;17.30;63.80;;;;;;5011451;28;20073;-71
2021/03/03 10:41:35;;;;;;;25.45;16.20;;;17.20;63.10;;;;;;5011079;28;20032;-71
2021/03/03 10:44:03;;;;;;;28.08;13.93;;;17.50;63.50;;;;;;5011576;28;20038;-71
2021/03/03 10:46:29;;;;;;;91.85;17.05;;;17.60;61.20;;;;;;5009274;28;20417;-71
2021/03/03 10:49:14;;;;;;;32.40;15.80;;;17.60;61.60;;;;;;5011651;28;20036;-71
2021/03/03 10:51:40;;;;;;;47.25;14.43;;;18.00;58.30;;;;;;5009806;28;20037;-72
2021/03/03 10:54:07;;;;;;;29.42;11.77;;;17.50;58.30;;;;;;5010740;28;20030;-71
2021/03/03 10:56:41;;;;;;;23.70;11.65;;;17.70;58.70;;;;;;5012569;28;20022;-71
2021/03/03 10:59:11;;;;;;;27.67;12.50;;;18.10;57.90;;;;;;5007742;28;20026;-71
2021/03/03 11:01:44;;;;;;;49.05;12.82;;;17.80;58.20;;;;;;5014874;28;20029;-71
2021/03/03 11:04:10;;;;;;;25.50;13.63;;;17.80;59.60;;;;;;5014082;28;20033;-71
2021/03/03 11:06:36;;;;;;;30.17;11.95;;;17.60;60.60;;;;;;5014039;28;20077;-71
2021/03/03 11:09:07;;;;;;;20.27;12.65;;;17.80;59.10;;;;;;5014994;28;20034;-71
2021/03/03 11:11:33;;;;;;;26.48;13.75;;;17.90;57.60;;;;;;5014881;28;20026;-71
2021/03/03 11:13:59;;;;;;;31.63;12.93;;;17.60;57.20;;;;;;5019457;28;20034;-71
2021/03/03 11:16:24;;;;;;;132.75;21.70;;;17.50;58.90;;;;;;5014519;28;20397;-71
2021/03/03 11:18:50;;;;;;;29.27;13.60;;;17.80;59.10;;;;;;5014696;28;20406;-71
2021/03/03 11:21:16;;;;;;;35.03;14.30;;;18.20;57.80;;;;;;5014709;28;20025;-72
2021/03/03 11:23:42;;;;;;;27.48;13.43;;;18.70;55.40;;;;;;5014737;28;20040;-70
2021/03/03 11:26:08;;;;;;;23.70;12.98;;;19.10;54.40;;;;;;5014704;28;20386;-70
2021/03/03 11:28:34;;;;;;;28.77;12.75;;;20.50;52.20;;;;;;5029352;28;20029;-71
2021/03/03 11:30:59;;;;;;;31.15;12.38;;;21.40;50.40;;;;;;5014467;28;20026;-71
2021/03/03 11:33:25;;;;;;;27.13;12.10;;;21.30;50.50;;;;;;5014818;28;20034;-71
2021/03/03 11:35:51;;;;;;;22.40;11.70;;;21.20;50.70;;;;;;5014430;28;20421;-71
2021/03/03 11:38:17;;;;;;;38.45;13.80;;;20.60;50.30;;;;;;5014676;28;20674;-71
2021/03/03 11:40:42;;;;;;;24.02;14.23;;;20.00;51.40;;;;;;5016139;28;20026;-71
2021/03/03 11:43:08;;;;;;;27.15;12.80;;;19.70;53.20;;;;;;5014816;28;20039;-71
2021/03/03 11:45:34;;;;;;;27.02;12.55;;;19.30;52.80;;;;;;5017870;28;20022;-71
2021/03/03 11:48:00;;;;;;;37.08;12.80;;;19.10;52.40;;;;;;5013813;28;20044;-71
2021/03/03 11:50:26;;;;;;;29.02;12.50;;;18.90;53.40;;;;;;5013063;28;20025;-71
2021/03/03 11:52:52;;;;;;;28.45;11.75;;;18.50;52.30;;;;;;5014105;28;20092;-71
2021/03/03 11:55:17;;;;;;;26.48;12.75;;;18.40;53.40;;;;;;5013385;28;20386;-71
2021/03/03 11:57:43;;;;;;;32.00;11.48;;;18.20;53.50;;;;;;5013677;28;20038;-71
2021/03/03 12:00:12;;;;;;;27.92;11.95;;;18.00;54.10;;;;;;5014180;28;20018;-71
2021/03/03 12:02:38;;;;;;;38.40;13.25;;;17.90;55.40;;;;;;5016976;28;20029;-71
2021/03/03 12:05:06;;;;;;;23.00;11.13;;;17.90;55.10;;;;;;5013897;28;20390;-71
2021/03/03 12:07:32;;;;;;;54.78;13.50;;;18.00;55.00;;;;;;5012724;28;20084;-71
2021/03/03 12:09:58;;;;;;;30.40;12.20;;;17.80;54.30;;;;;;5012688;28;20037;-71
2021/03/03 12:12:24;;;;;;;28.38;11.20;;;17.50;54.40;;;;;;5013102;28;20033;-71
2021/03/03 12:14:50;;;;;;;36.28;12.90;;;17.40;56.00;;;;;;5017410;28;20037;-71
2021/03/03 12:17:16;;;;;;;40.28;12.20;;;17.30;57.00;;;;;;5013105;28;20624;-71
2021/03/03 12:19:41;;;;;;;22.63;11.23;;;17.50;56.50;;;;;;5012325;28;20037;-71
2021/03/03 12:22:07;;;;;;;25.35;11.10;;;17.40;54.30;;;;;;5013208;28;20037;-71
2021/03/03 12:24:33;;;;;;;20.77;10.70;;;17.50;54.60;;;;;;5012903;28;20517;-71
2021/03/03 12:26:59;;;;;;;30.88;12.77;;;17.70;54.00;;;;;;5011455;28;20083;-71
2021/03/03 12:29:26;;;;;;;28.17;11.60;;;17.80;54.20;;;;;;5013910;28;20441;-71
2021/03/03 12:31:52;;;;;;;26.95;9.52;;;17.90;55.40;;;;;;5012335;28;20038;-71
2021/03/03 12:34:18;;;;;;;23.23;9.77;;;18.00;53.50;;;;;;5012973;28;20026;-71
2021/03/03 12:36:44;;;;;;;26.83;10.60;;;18.10;54.20;;;;;;5012296;28;20120;-71
2021/03/03 12:39:09;;;;;;;22.67;9.95;;;18.20;56.30;;;;;;5011248;28;20193;-71
2021/03/03 12:41:36;;;;;;;22.75;10.60;;;18.30;54.00;;;;;;5016145;28;20405;-71
2021/03/03 12:44:02;;;;;;;36.55;10.95;;;18.70;54.50;;;;;;5010500;28;20018;-71
2021/03/03 12:46:29;;;;;;;31.95;12.15;;;18.70;54.60;;;;;;5011394;28;20048;-71